sensor_id;sensor_type;location;lat;lon;timestamp;P1;durP1;ratioP1;P2;durP2;ratioP2
45402;SDS011;47427;51.976;5.326;2022-11-10T00:03:14;22.13;;;6.72;;
45402;SDS011;47427;51.976;5.326;2022-11-10T00:06:55;26.80;;;6.88;;
45402;SDS011;47427;51.976;5.326;2022-11-10T00:10:37;29.35;;;7.57;;
45402;SDS011;47427;51.976;5.326;2022-11-10T00:14:37;37.13;;;9.35;;
45402;SDS011;47427;51.976;5.326;2022-11-10T00:18:38;24.27;;;6.68;;
45402;SDS011;47427;51.976;5.326;2022-11-10T00:22:19;36.42;;;9.35;;
45402;SDS011;47427;51.976;5.326;2022-11-10T00:26:00;28.80;;;7.20;;
45402;SDS011;47427;51.976;5.326;2022-11-10T00:29:42;24.80;;;7.05;;
45402;SDS011;47427;51.976;5.326;2022-11-10T00:33:24;27.55;;;6.80;;
45402;SDS011;47427;51.976;5.326;2022-11-10T00:37:05;28.73;;;8.27;;
45402;SDS011;47427;51.976;5.326;2022-11-10T00:40:46;26.00;;;7.63;;
45402;SDS011;47427;51.976;5.326;2022-11-10T00:44:27;30.85;;;7.95;;
45402;SDS011;47427;51.976;5.326;2022-11-10T00:48:07;27.13;;;7.15;;
45402;SDS011;47427;51.976;5.326;2022-11-10T00:51:47;26.40;;;7.18;;
45402;SDS011;47427;51.976;5.326;2022-11-10T00:55:27;33.55;;;7.72;;
45402;SDS011;47427;51.976;5.326;2022-11-10T00:59:07;27.98;;;7.68;;
45402;SDS011;47427;51.976;5.326;2022-11-10T01:02:48;22.92;;;8.52;;
45402;SDS011;47427;51.976;5.326;2022-11-10T01:06:28;31.33;;;10.63;;
45402;SDS011;47427;51.976;5.326;2022-11-10T01:10:08;25.75;;;7.05;;
45402;SDS011;47427;51.976;5.326;2022-11-10T01:13:49;35.83;;;8.70;;
45402;SDS011;47427;51.976;5.326;2022-11-10T01:17:31;39.13;;;10.00;;
45402;SDS011;47427;51.976;5.326;2022-11-10T01:21:11;26.75;;;8.75;;
45402;SDS011;47427;51.976;5.326;2022-11-10T01:24:51;31.65;;;9.77;;
45402;SDS011;47427;51.976;5.326;2022-11-10T01:28:32;35.38;;;8.63;;
45402;SDS011;47427;51.976;5.326;2022-11-10T01:32:14;33.47;;;9.23;;
45402;SDS011;47427;51.976;5.326;2022-11-10T01:35:55;23.60;;;8.60;;
45402;SDS011;47427;51.976;5.326;2022-11-10T01:39:35;27.45;;;7.70;;
45402;SDS011;47427;51.976;5.326;2022-11-10T01:43:16;30.58;;;8.52;;
45402;SDS011;47427;51.976;5.326;2022-11-10T01:46:56;34.22;;;8.55;;
45402;SDS011;47427;51.976;5.326;2022-11-10T01:50:37;23.02;;;8.45;;
45402;SDS011;47427;51.976;5.326;2022-11-10T01:54:30;30.10;;;9.80;;
45402;SDS011;47427;51.976;5.326;2022-11-10T01:58:18;37.75;;;8.60;;
45402;SDS011;47427;51.976;5.326;2022-11-10T02:02:08;25.98;;;9.13;;
45402;SDS011;47427;51.976;5.326;2022-11-10T02:06:10;33.38;;;9.05;;
45402;SDS011;47427;51.976;5.326;2022-11-10T02:09:51;34.33;;;9.57;;
45402;SDS011;47427;51.976;5.326;2022-11-10T02:13:32;31.65;;;9.25;;
45402;SDS011;47427;51.976;5.326;2022-11-10T02:17:12;28.05;;;9.93;;
45402;SDS011;47427;51.976;5.326;2022-11-10T02:20:53;32.03;;;10.32;;
45402;SDS011;47427;51.976;5.326;2022-11-10T02:24:33;24.63;;;8.98;;
45402;SDS011;47427;51.976;5.326;2022-11-10T02:28:14;34.92;;;9.48;;
45402;SDS011;47427;51.976;5.326;2022-11-10T02:31:54;36.83;;;10.95;;
45402;SDS011;47427;51.976;5.326;2022-11-10T02:35:42;26.52;;;9.25;;
45402;SDS011;47427;51.976;5.326;2022-11-10T02:39:24;36.72;;;8.68;;
45402;SDS011;47427;51.976;5.326;2022-11-10T02:43:05;28.88;;;9.43;;
45402;SDS011;47427;51.976;5.326;2022-11-10T02:46:48;30.73;;;10.18;;
45402;SDS011;47427;51.976;5.326;2022-11-10T02:50:28;26.08;;;9.07;;
45402;SDS011;47427;51.976;5.326;2022-11-10T02:54:10;30.67;;;9.80;;
45402;SDS011;47427;51.976;5.326;2022-11-10T02:58:10;30.52;;;9.93;;
45402;SDS011;47427;51.976;5.326;2022-11-10T03:01:51;29.80;;;9.65;;
45402;SDS011;47427;51.976;5.326;2022-11-10T03:05:31;28.20;;;9.30;;
45402;SDS011;47427;51.976;5.326;2022-11-10T03:09:12;28.70;;;8.68;;
45402;SDS011;47427;51.976;5.326;2022-11-10T03:12:52;26.75;;;8.52;;
45402;SDS011;47427;51.976;5.326;2022-11-10T03:16:34;36.58;;;9.80;;
45402;SDS011;47427;51.976;5.326;2022-11-10T03:20:15;41.00;;;8.68;;
45402;SDS011;47427;51.976;5.326;2022-11-10T03:23:55;31.25;;;10.15;;
45402;SDS011;47427;51.976;5.326;2022-11-10T03:27:36;33.35;;;9.55;;
45402;SDS011;47427;51.976;5.326;2022-11-10T03:31:16;35.33;;;10.57;;
45402;SDS011;47427;51.976;5.326;2022-11-10T03:34:57;25.65;;;8.50;;
45402;SDS011;47427;51.976;5.326;2022-11-10T03:38:37;34.13;;;9.55;;
45402;SDS011;47427;51.976;5.326;2022-11-10T03:42:17;37.28;;;8.73;;
45402;SDS011;47427;51.976;5.326;2022-11-10T03:45:58;23.02;;;9.52;;
45402;SDS011;47427;51.976;5.326;2022-11-10T03:49:39;29.98;;;9.23;;
45402;SDS011;47427;51.976;5.326;2022-11-10T03:53:19;33.75;;;10.63;;
45402;SDS011;47427;51.976;5.326;2022-11-10T03:56:59;27.38;;;8.88;;
45402;SDS011;47427;51.976;5.326;2022-11-10T04:00:39;31.70;;;10.05;;
45402;SDS011;47427;51.976;5.326;2022-11-10T04:04:20;33.45;;;9.45;;
45402;SDS011;47427;51.976;5.326;2022-11-10T04:08:19;30.00;;;9.68;;
45402;SDS011;47427;51.976;5.326;2022-11-10T04:12:18;30.83;;;9.45;;
45402;SDS011;47427;51.976;5.326;2022-11-10T04:16:17;37.65;;;9.18;;
45402;SDS011;47427;51.976;5.326;2022-11-10T04:19:58;38.45;;;10.65;;
45402;SDS011;47427;51.976;5.326;2022-11-10T04:23:38;30.73;;;9.80;;
45402;SDS011;47427;51.976;5.326;2022-11-10T04:27:18;38.78;;;10.55;;
45402;SDS011;47427;51.976;5.326;2022-11-10T04:30:59;34.10;;;10.40;;
45402;SDS011;47427;51.976;5.326;2022-11-10T04:34:39;26.08;;;9.63;;
45402;SDS011;47427;51.976;5.326;2022-11-10T04:38:19;31.90;;;9.70;;
45402;SDS011;47427;51.976;5.326;2022-11-10T04:41:59;32.63;;;10.65;;
45402;SDS011;47427;51.976;5.326;2022-11-10T04:45:39;32.38;;;10.68;;
45402;SDS011;47427;51.976;5.326;2022-11-10T04:49:20;37.53;;;10.45;;
45402;SDS011;47427;51.976;5.326;2022-11-10T04:53:00;23.30;;;9.77;;
45402;SDS011;47427;51.976;5.326;2022-11-10T04:56:40;41.15;;;9.50;;
45402;SDS011;47427;51.976;5.326;2022-11-10T05:00:22;34.75;;;9.57;;
45402;SDS011;47427;51.976;5.326;2022-11-10T05:04:02;35.22;;;10.60;;
45402;SDS011;47427;51.976;5.326;2022-11-10T05:07:46;33.15;;;8.63;;
45402;SDS011;47427;51.976;5.326;2022-11-10T05:11:27;40.78;;;10.43;;
45402;SDS011;47427;51.976;5.326;2022-11-10T05:15:07;41.08;;;10.27;;
45402;SDS011;47427;51.976;5.326;2022-11-10T05:18:48;32.58;;;8.55;;
45402;SDS011;47427;51.976;5.326;2022-11-10T05:22:34;41.95;;;10.38;;
45402;SDS011;47427;51.976;5.326;2022-11-10T05:26:15;23.92;;;7.97;;
45402;SDS011;47427;51.976;5.326;2022-11-10T05:29:58;31.05;;;9.23;;
45402;SDS011;47427;51.976;5.326;2022-11-10T05:33:38;25.90;;;9.90;;
45402;SDS011;47427;51.976;5.326;2022-11-10T05:37:18;28.50;;;8.85;;
45402;SDS011;47427;51.976;5.326;2022-11-10T05:40:58;32.90;;;9.07;;
45402;SDS011;47427;51.976;5.326;2022-11-10T05:44:39;25.17;;;7.72;;
45402;SDS011;47427;51.976;5.326;2022-11-10T05:48:19;24.85;;;8.70;;
45402;SDS011;47427;51.976;5.326;2022-11-10T05:51:59;26.98;;;9.18;;
45402;SDS011;47427;51.976;5.326;2022-11-10T05:55:59;27.75;;;8.50;;
45402;SDS011;47427;51.976;5.326;2022-11-10T05:59:40;30.55;;;8.23;;
45402;SDS011;47427;51.976;5.326;2022-11-10T06:03:20;34.67;;;9.45;;
45402;SDS011;47427;51.976;5.326;2022-11-10T06:07:00;25.67;;;7.55;;
45402;SDS011;47427;51.976;5.326;2022-11-10T06:10:40;22.45;;;7.68;;
45402;SDS011;47427;51.976;5.326;2022-11-10T06:14:21;19.63;;;6.70;;
45402;SDS011;47427;51.976;5.326;2022-11-10T06:18:02;31.23;;;8.27;;
45402;SDS011;47427;51.976;5.326;2022-11-10T06:21:43;27.38;;;7.22;;
45402;SDS011;47427;51.976;5.326;2022-11-10T06:25:23;32.42;;;7.47;;
45402;SDS011;47427;51.976;5.326;2022-11-10T06:29:03;25.55;;;7.55;;
45402;SDS011;47427;51.976;5.326;2022-11-10T06:32:43;29.10;;;8.82;;
45402;SDS011;47427;51.976;5.326;2022-11-10T06:36:24;27.42;;;8.20;;
45402;SDS011;47427;51.976;5.326;2022-11-10T06:40:06;26.52;;;8.00;;
45402;SDS011;47427;51.976;5.326;2022-11-10T06:43:48;31.25;;;7.60;;
45402;SDS011;47427;51.976;5.326;2022-11-10T06:47:29;31.52;;;8.70;;
45402;SDS011;47427;51.976;5.326;2022-11-10T06:51:09;29.15;;;8.80;;
45402;SDS011;47427;51.976;5.326;2022-11-10T06:54:50;32.75;;;8.82;;
45402;SDS011;47427;51.976;5.326;2022-11-10T06:58:30;28.30;;;8.15;;
45402;SDS011;47427;51.976;5.326;2022-11-10T07:02:13;25.73;;;8.25;;
45402;SDS011;47427;51.976;5.326;2022-11-10T07:05:54;25.55;;;7.05;;
45402;SDS011;47427;51.976;5.326;2022-11-10T07:09:34;32.13;;;7.55;;
45402;SDS011;47427;51.976;5.326;2022-11-10T07:13:14;28.85;;;7.50;;
45402;SDS011;47427;51.976;5.326;2022-11-10T07:16:55;23.48;;;6.75;;
45402;SDS011;47427;51.976;5.326;2022-11-10T07:20:35;23.90;;;7.03;;
45402;SDS011;47427;51.976;5.326;2022-11-10T07:24:15;24.98;;;6.03;;
45402;SDS011;47427;51.976;5.326;2022-11-10T07:27:56;24.13;;;6.47;;
45402;SDS011;47427;51.976;5.326;2022-11-10T07:31:38;19.17;;;5.97;;
45402;SDS011;47427;51.976;5.326;2022-11-10T07:35:18;22.23;;;6.47;;
45402;SDS011;47427;51.976;5.326;2022-11-10T07:38:59;25.75;;;6.18;;
45402;SDS011;47427;51.976;5.326;2022-11-10T07:42:39;24.08;;;7.82;;
45402;SDS011;47427;51.976;5.326;2022-11-10T07:46:19;22.50;;;7.55;;
45402;SDS011;47427;51.976;5.326;2022-11-10T07:50:00;29.83;;;6.22;;
45402;SDS011;47427;51.976;5.326;2022-11-10T07:53:40;30.80;;;6.85;;
45402;SDS011;47427;51.976;5.326;2022-11-10T07:57:21;34.58;;;7.63;;
45402;SDS011;47427;51.976;5.326;2022-11-10T08:01:02;29.85;;;7.00;;
45402;SDS011;47427;51.976;5.326;2022-11-10T08:04:42;28.15;;;9.38;;
45402;SDS011;47427;51.976;5.326;2022-11-10T08:08:22;24.33;;;7.57;;
45402;SDS011;47427;51.976;5.326;2022-11-10T08:12:03;24.88;;;5.90;;
45402;SDS011;47427;51.976;5.326;2022-11-10T08:15:43;22.65;;;6.25;;
45402;SDS011;47427;51.976;5.326;2022-11-10T08:19:24;26.13;;;5.88;;
45402;SDS011;47427;51.976;5.326;2022-11-10T08:23:04;16.42;;;5.40;;
45402;SDS011;47427;51.976;5.326;2022-11-10T08:26:45;23.45;;;6.13;;
45402;SDS011;47427;51.976;5.326;2022-11-10T08:30:26;22.08;;;6.28;;
45402;SDS011;47427;51.976;5.326;2022-11-10T08:34:07;23.85;;;5.15;;
45402;SDS011;47427;51.976;5.326;2022-11-10T08:37:48;19.65;;;5.38;;
45402;SDS011;47427;51.976;5.326;2022-11-10T08:41:28;26.50;;;6.47;;
45402;SDS011;47427;51.976;5.326;2022-11-10T08:45:09;22.35;;;6.03;;
45402;SDS011;47427;51.976;5.326;2022-11-10T08:48:49;23.52;;;5.97;;
45402;SDS011;47427;51.976;5.326;2022-11-10T08:52:29;21.92;;;5.95;;
45402;SDS011;47427;51.976;5.326;2022-11-10T08:56:09;20.92;;;5.68;;
45402;SDS011;47427;51.976;5.326;2022-11-10T08:59:49;17.10;;;5.45;;
45402;SDS011;47427;51.976;5.326;2022-11-10T09:03:29;24.38;;;6.20;;
45402;SDS011;47427;51.976;5.326;2022-11-10T09:07:10;21.52;;;7.25;;
45402;SDS011;47427;51.976;5.326;2022-11-10T09:10:50;24.60;;;6.93;;
45402;SDS011;47427;51.976;5.326;2022-11-10T09:14:30;23.70;;;6.47;;
45402;SDS011;47427;51.976;5.326;2022-11-10T09:18:11;23.25;;;7.32;;
45402;SDS011;47427;51.976;5.326;2022-11-10T09:21:53;18.13;;;5.20;;
45402;SDS011;47427;51.976;5.326;2022-11-10T09:25:34;26.23;;;6.43;;
45402;SDS011;47427;51.976;5.326;2022-11-10T09:29:14;19.20;;;5.57;;
45402;SDS011;47427;51.976;5.326;2022-11-10T09:32:55;22.63;;;6.57;;
45402;SDS011;47427;51.976;5.326;2022-11-10T09:36:38;18.65;;;5.97;;
45402;SDS011;47427;51.976;5.326;2022-11-10T09:44:46;16.88;;;6.03;;
45402;SDS011;47427;51.976;5.326;2022-11-10T09:48:35;15.27;;;6.07;;
45402;SDS011;47427;51.976;5.326;2022-11-10T09:52:22;20.10;;;6.28;;
45402;SDS011;47427;51.976;5.326;2022-11-10T09:56:06;16.15;;;6.05;;
45402;SDS011;47427;51.976;5.326;2022-11-10T09:59:52;21.05;;;6.60;;
45402;SDS011;47427;51.976;5.326;2022-11-10T10:03:32;25.42;;;7.60;;
45402;SDS011;47427;51.976;5.326;2022-11-10T10:07:25;21.10;;;6.93;;
45402;SDS011;47427;51.976;5.326;2022-11-10T10:15:29;22.77;;;6.53;;
45402;SDS011;47427;51.976;5.326;2022-11-10T10:23:44;18.00;;;6.55;;
45402;SDS011;47427;51.976;5.326;2022-11-10T10:27:30;28.05;;;7.00;;
45402;SDS011;47427;51.976;5.326;2022-11-10T10:35:00;20.70;;;6.60;;
45402;SDS011;47427;51.976;5.326;2022-11-10T10:38:40;25.52;;;5.50;;
45402;SDS011;47427;51.976;5.326;2022-11-10T10:42:28;17.40;;;6.00;;
45402;SDS011;47427;51.976;5.326;2022-11-10T10:46:15;18.40;;;5.25;;
45402;SDS011;47427;51.976;5.326;2022-11-10T10:58:20;21.95;;;7.03;;
45402;SDS011;47427;51.976;5.326;2022-11-10T11:02:26;16.20;;;5.72;;
45402;SDS011;47427;51.976;5.326;2022-11-10T11:09:53;25.73;;;6.30;;
45402;SDS011;47427;51.976;5.326;2022-11-10T11:13:33;27.27;;;6.47;;
45402;SDS011;47427;51.976;5.326;2022-11-10T11:17:17;17.63;;;5.55;;
45402;SDS011;47427;51.976;5.326;2022-11-10T11:25:17;18.98;;;5.70;;
45402;SDS011;47427;51.976;5.326;2022-11-10T11:29:16;19.95;;;5.00;;
45402;SDS011;47427;51.976;5.326;2022-11-10T11:37:26;20.15;;;6.25;;
45402;SDS011;47427;51.976;5.326;2022-11-10T11:41:52;20.98;;;6.82;;
45402;SDS011;47427;51.976;5.326;2022-11-10T11:45:43;19.60;;;8.00;;
45402;SDS011;47427;51.976;5.326;2022-11-10T12:06:38;21.00;;;6.43;;
45402;SDS011;47427;51.976;5.326;2022-11-10T12:14:26;19.00;;;6.22;;
45402;SDS011;47427;51.976;5.326;2022-11-10T12:18:42;24.17;;;7.63;;
45402;SDS011;47427;51.976;5.326;2022-11-10T12:22:48;20.10;;;7.80;;
45402;SDS011;47427;51.976;5.326;2022-11-10T12:27:08;20.37;;;5.90;;
45402;SDS011;47427;51.976;5.326;2022-11-10T12:31:15;24.98;;;6.28;;
45402;SDS011;47427;51.976;5.326;2022-11-10T12:35:17;19.15;;;6.40;;
45402;SDS011;47427;51.976;5.326;2022-11-10T12:47:17;24.42;;;6.50;;
45402;SDS011;47427;51.976;5.326;2022-11-10T12:51:23;20.45;;;4.90;;
45402;SDS011;47427;51.976;5.326;2022-11-10T12:55:59;20.05;;;5.28;;
45402;SDS011;47427;51.976;5.326;2022-11-10T13:00:28;18.38;;;5.68;;
45402;SDS011;47427;51.976;5.326;2022-11-10T13:04:13;18.50;;;4.72;;
45402;SDS011;47427;51.976;5.326;2022-11-10T13:15:53;18.50;;;5.15;;
45402;SDS011;47427;51.976;5.326;2022-11-10T13:46:44;16.45;;;4.53;;
45402;SDS011;47427;51.976;5.326;2022-11-10T13:59:16;15.00;;;3.83;;
45402;SDS011;47427;51.976;5.326;2022-11-10T14:03:12;13.30;;;3.88;;
45402;SDS011;47427;51.976;5.326;2022-11-10T14:07:41;16.45;;;4.78;;
45402;SDS011;47427;51.976;5.326;2022-11-10T14:11:34;10.95;;;3.33;;
45402;SDS011;47427;51.976;5.326;2022-11-10T14:15:21;9.25;;;3.55;;
45402;SDS011;47427;51.976;5.326;2022-11-10T14:19:31;16.38;;;4.25;;
45402;SDS011;47427;51.976;5.326;2022-11-10T14:27:32;12.00;;;3.88;;
45402;SDS011;47427;51.976;5.326;2022-11-10T14:31:20;13.95;;;4.18;;
45402;SDS011;47427;51.976;5.326;2022-11-10T14:35:03;12.85;;;4.13;;
45402;SDS011;47427;51.976;5.326;2022-11-10T14:38:44;13.82;;;4.13;;
45402;SDS011;47427;51.976;5.326;2022-11-10T14:42:28;20.33;;;5.03;;
45402;SDS011;47427;51.976;5.326;2022-11-10T14:46:12;19.02;;;4.75;;
45402;SDS011;47427;51.976;5.326;2022-11-10T14:50:03;14.05;;;4.15;;
45402;SDS011;47427;51.976;5.326;2022-11-10T14:53:53;10.65;;;3.72;;
45402;SDS011;47427;51.976;5.326;2022-11-10T14:57:35;14.95;;;3.97;;
45402;SDS011;47427;51.976;5.326;2022-11-10T15:01:24;12.63;;;4.25;;
45402;SDS011;47427;51.976;5.326;2022-11-10T15:05:14;12.20;;;5.18;;
45402;SDS011;47427;51.976;5.326;2022-11-10T15:08:54;17.08;;;5.90;;
45402;SDS011;47427;51.976;5.326;2022-11-10T15:12:34;16.02;;;4.15;;
45402;SDS011;47427;51.976;5.326;2022-11-10T15:16:22;22.02;;;5.18;;
45402;SDS011;47427;51.976;5.326;2022-11-10T15:20:27;14.23;;;3.80;;
45402;SDS011;47427;51.976;5.326;2022-11-10T15:24:16;13.05;;;4.07;;
45402;SDS011;47427;51.976;5.326;2022-11-10T15:28:02;12.27;;;3.13;;
45402;SDS011;47427;51.976;5.326;2022-11-10T15:31:51;11.02;;;3.90;;
45402;SDS011;47427;51.976;5.326;2022-11-10T15:35:31;20.20;;;4.70;;
45402;SDS011;47427;51.976;5.326;2022-11-10T15:43:07;15.18;;;3.58;;
45402;SDS011;47427;51.976;5.326;2022-11-10T15:46:55;12.63;;;4.00;;
45402;SDS011;47427;51.976;5.326;2022-11-10T15:50:37;12.95;;;3.50;;
45402;SDS011;47427;51.976;5.326;2022-11-10T15:54:18;11.13;;;3.67;;
45402;SDS011;47427;51.976;5.326;2022-11-10T15:58:04;12.05;;;3.33;;
45402;SDS011;47427;51.976;5.326;2022-11-10T16:02:01;7.68;;;2.95;;
45402;SDS011;47427;51.976;5.326;2022-11-10T16:05:41;13.50;;;3.65;;
45402;SDS011;47427;51.976;5.326;2022-11-10T16:09:22;11.82;;;3.47;;
45402;SDS011;47427;51.976;5.326;2022-11-10T16:13:02;12.50;;;3.83;;
45402;SDS011;47427;51.976;5.326;2022-11-10T16:16:42;9.07;;;2.58;;
45402;SDS011;47427;51.976;5.326;2022-11-10T16:20:23;15.63;;;3.40;;
45402;SDS011;47427;51.976;5.326;2022-11-10T16:24:03;10.65;;;3.47;;
45402;SDS011;47427;51.976;5.326;2022-11-10T16:27:44;10.27;;;3.42;;
45402;SDS011;47427;51.976;5.326;2022-11-10T16:31:24;10.60;;;3.45;;
45402;SDS011;47427;51.976;5.326;2022-11-10T16:35:10;8.80;;;2.97;;
45402;SDS011;47427;51.976;5.326;2022-11-10T16:38:53;9.50;;;3.50;;
45402;SDS011;47427;51.976;5.326;2022-11-10T16:42:34;14.63;;;4.95;;
45402;SDS011;47427;51.976;5.326;2022-11-10T16:46:21;12.70;;;3.70;;
45402;SDS011;47427;51.976;5.326;2022-11-10T16:50:04;13.00;;;3.80;;
45402;SDS011;47427;51.976;5.326;2022-11-10T16:54:01;12.23;;;4.15;;
45402;SDS011;47427;51.976;5.326;2022-11-10T16:57:42;10.63;;;3.85;;
45402;SDS011;47427;51.976;5.326;2022-11-10T17:01:22;11.95;;;3.30;;
45402;SDS011;47427;51.976;5.326;2022-11-10T17:05:12;12.95;;;4.32;;
45402;SDS011;47427;51.976;5.326;2022-11-10T17:12:37;10.45;;;4.15;;
45402;SDS011;47427;51.976;5.326;2022-11-10T17:20:09;6.45;;;3.42;;
45402;SDS011;47427;51.976;5.326;2022-11-10T17:24:19;7.68;;;3.78;;
45402;SDS011;47427;51.976;5.326;2022-11-10T17:27:59;12.40;;;4.43;;
45402;SDS011;47427;51.976;5.326;2022-11-10T17:31:40;9.23;;;4.93;;
45402;SDS011;47427;51.976;5.326;2022-11-10T17:35:20;9.57;;;4.43;;
45402;SDS011;47427;51.976;5.326;2022-11-10T17:39:00;9.20;;;4.10;;
45402;SDS011;47427;51.976;5.326;2022-11-10T17:42:40;8.40;;;3.83;;
45402;SDS011;47427;51.976;5.326;2022-11-10T17:46:20;12.82;;;4.63;;
45402;SDS011;47427;51.976;5.326;2022-11-10T17:50:01;13.60;;;3.45;;
45402;SDS011;47427;51.976;5.326;2022-11-10T17:53:41;16.40;;;3.38;;
45402;SDS011;47427;51.976;5.326;2022-11-10T17:57:21;12.80;;;3.58;;
45402;SDS011;47427;51.976;5.326;2022-11-10T18:01:06;9.20;;;3.97;;
45402;SDS011;47427;51.976;5.326;2022-11-10T18:04:57;11.38;;;3.60;;
45402;SDS011;47427;51.976;5.326;2022-11-10T18:08:37;13.25;;;4.65;;
45402;SDS011;47427;51.976;5.326;2022-11-10T18:12:17;10.68;;;4.22;;
45402;SDS011;47427;51.976;5.326;2022-11-10T18:15:57;11.80;;;4.18;;
45402;SDS011;47427;51.976;5.326;2022-11-10T18:19:38;8.48;;;3.90;;
45402;SDS011;47427;51.976;5.326;2022-11-10T18:23:19;12.02;;;3.97;;
45402;SDS011;47427;51.976;5.326;2022-11-10T18:26:59;8.75;;;3.70;;
45402;SDS011;47427;51.976;5.326;2022-11-10T18:30:39;15.60;;;3.90;;
45402;SDS011;47427;51.976;5.326;2022-11-10T18:34:20;11.32;;;3.30;;
45402;SDS011;47427;51.976;5.326;2022-11-10T18:38:01;12.30;;;4.50;;
45402;SDS011;47427;51.976;5.326;2022-11-10T18:41:41;9.40;;;3.58;;
45402;SDS011;47427;51.976;5.326;2022-11-10T18:45:27;13.70;;;4.90;;
45402;SDS011;47427;51.976;5.326;2022-11-10T18:49:08;10.52;;;3.15;;
45402;SDS011;47427;51.976;5.326;2022-11-10T18:52:48;13.10;;;3.97;;
45402;SDS011;47427;51.976;5.326;2022-11-10T18:56:28;11.02;;;5.60;;
45402;SDS011;47427;51.976;5.326;2022-11-10T19:00:09;37.72;;;18.60;;
45402;SDS011;47427;51.976;5.326;2022-11-10T19:03:50;29.10;;;15.63;;
45402;SDS011;47427;51.976;5.326;2022-11-10T19:07:30;20.42;;;8.88;;
45402;SDS011;47427;51.976;5.326;2022-11-10T19:11:12;22.00;;;11.75;;
45402;SDS011;47427;51.976;5.326;2022-11-10T19:14:54;15.00;;;6.45;;
45402;SDS011;47427;51.976;5.326;2022-11-10T19:18:35;11.52;;;4.82;;
45402;SDS011;47427;51.976;5.326;2022-11-10T19:22:19;15.95;;;5.15;;
45402;SDS011;47427;51.976;5.326;2022-11-10T19:26:04;16.05;;;5.50;;
45402;SDS011;47427;51.976;5.326;2022-11-10T19:29:48;17.55;;;7.05;;
45402;SDS011;47427;51.976;5.326;2022-11-10T19:33:29;10.75;;;4.47;;
45402;SDS011;47427;51.976;5.326;2022-11-10T19:37:11;14.63;;;4.72;;
45402;SDS011;47427;51.976;5.326;2022-11-10T19:40:51;9.88;;;5.70;;
45402;SDS011;47427;51.976;5.326;2022-11-10T19:44:31;20.33;;;6.15;;
45402;SDS011;47427;51.976;5.326;2022-11-10T19:48:11;11.63;;;5.38;;
45402;SDS011;47427;51.976;5.326;2022-11-10T19:51:51;18.63;;;5.70;;
45402;SDS011;47427;51.976;5.326;2022-11-10T19:55:32;20.02;;;6.95;;
45402;SDS011;47427;51.976;5.326;2022-11-10T19:59:12;14.57;;;6.93;;
45402;SDS011;47427;51.976;5.326;2022-11-10T20:02:52;12.43;;;5.28;;
45402;SDS011;47427;51.976;5.326;2022-11-10T20:06:33;18.30;;;6.53;;
45402;SDS011;47427;51.976;5.326;2022-11-10T20:10:13;16.92;;;6.32;;
45402;SDS011;47427;51.976;5.326;2022-11-10T20:13:54;12.48;;;6.13;;
45402;SDS011;47427;51.976;5.326;2022-11-10T20:17:38;13.65;;;6.20;;
45402;SDS011;47427;51.976;5.326;2022-11-10T20:21:19;12.10;;;5.68;;
45402;SDS011;47427;51.976;5.326;2022-11-10T20:25:02;12.27;;;5.35;;
45402;SDS011;47427;51.976;5.326;2022-11-10T20:28:42;18.73;;;6.43;;
45402;SDS011;47427;51.976;5.326;2022-11-10T20:32:23;11.80;;;6.05;;
45402;SDS011;47427;51.976;5.326;2022-11-10T20:36:05;13.18;;;6.65;;
45402;SDS011;47427;51.976;5.326;2022-11-10T20:39:51;13.95;;;7.40;;
45402;SDS011;47427;51.976;5.326;2022-11-10T20:43:32;14.45;;;6.13;;
45402;SDS011;47427;51.976;5.326;2022-11-10T20:47:15;11.93;;;6.35;;
45402;SDS011;47427;51.976;5.326;2022-11-10T20:50:55;18.35;;;5.93;;
45402;SDS011;47427;51.976;5.326;2022-11-10T20:54:35;15.52;;;8.02;;
45402;SDS011;47427;51.976;5.326;2022-11-10T20:58:15;19.48;;;7.40;;
45402;SDS011;47427;51.976;5.326;2022-11-10T21:02:16;19.98;;;8.18;;
45402;SDS011;47427;51.976;5.326;2022-11-10T21:05:56;17.15;;;7.70;;
45402;SDS011;47427;51.976;5.326;2022-11-10T21:09:37;18.17;;;8.13;;
45402;SDS011;47427;51.976;5.326;2022-11-10T21:13:17;27.25;;;8.98;;
45402;SDS011;47427;51.976;5.326;2022-11-10T21:16:58;21.33;;;8.95;;
45402;SDS011;47427;51.976;5.326;2022-11-10T21:20:38;16.90;;;9.05;;
45402;SDS011;47427;51.976;5.326;2022-11-10T21:24:18;20.60;;;8.45;;
45402;SDS011;47427;51.976;5.326;2022-11-10T21:28:00;15.88;;;9.18;;
45402;SDS011;47427;51.976;5.326;2022-11-10T21:31:41;14.20;;;7.75;;
45402;SDS011;47427;51.976;5.326;2022-11-10T21:35:21;20.42;;;8.88;;
45402;SDS011;47427;51.976;5.326;2022-11-10T21:39:01;15.50;;;8.75;;
45402;SDS011;47427;51.976;5.326;2022-11-10T21:42:41;24.10;;;8.68;;
45402;SDS011;47427;51.976;5.326;2022-11-10T21:46:22;15.18;;;8.80;;
45402;SDS011;47427;51.976;5.326;2022-11-10T21:50:02;23.80;;;9.40;;
45402;SDS011;47427;51.976;5.326;2022-11-10T21:53:44;14.95;;;9.57;;
45402;SDS011;47427;51.976;5.326;2022-11-10T21:57:44;19.98;;;10.05;;
45402;SDS011;47427;51.976;5.326;2022-11-10T22:01:25;17.00;;;9.80;;
45402;SDS011;47427;51.976;5.326;2022-11-10T22:05:06;16.42;;;9.88;;
45402;SDS011;47427;51.976;5.326;2022-11-10T22:08:46;20.33;;;9.50;;
45402;SDS011;47427;51.976;5.326;2022-11-10T22:12:26;21.38;;;9.32;;
45402;SDS011;47427;51.976;5.326;2022-11-10T22:16:26;18.40;;;10.18;;
45402;SDS011;47427;51.976;5.326;2022-11-10T22:20:31;18.60;;;9.60;;
45402;SDS011;47427;51.976;5.326;2022-11-10T22:24:11;19.73;;;10.00;;
45402;SDS011;47427;51.976;5.326;2022-11-10T22:28:07;22.02;;;11.13;;
45402;SDS011;47427;51.976;5.326;2022-11-10T22:31:47;19.23;;;9.73;;
45402;SDS011;47427;51.976;5.326;2022-11-10T22:35:28;20.50;;;10.65;;
45402;SDS011;47427;51.976;5.326;2022-11-10T22:39:28;19.85;;;10.55;;
45402;SDS011;47427;51.976;5.326;2022-11-10T22:43:27;19.08;;;9.80;;
45402;SDS011;47427;51.976;5.326;2022-11-10T22:47:26;16.80;;;10.07;;
45402;SDS011;47427;51.976;5.326;2022-11-10T22:51:27;20.88;;;11.27;;
45402;SDS011;47427;51.976;5.326;2022-11-10T22:55:09;20.60;;;11.90;;
45402;SDS011;47427;51.976;5.326;2022-11-10T22:58:49;30.55;;;11.32;;
45402;SDS011;47427;51.976;5.326;2022-11-10T23:02:30;21.15;;;11.88;;
45402;SDS011;47427;51.976;5.326;2022-11-10T23:06:11;21.48;;;12.10;;
45402;SDS011;47427;51.976;5.326;2022-11-10T23:09:51;23.77;;;11.80;;
45402;SDS011;47427;51.976;5.326;2022-11-10T23:13:34;21.85;;;11.70;;
45402;SDS011;47427;51.976;5.326;2022-11-10T23:17:15;23.48;;;12.32;;
45402;SDS011;47427;51.976;5.326;2022-11-10T23:20:56;22.95;;;11.32;;
45402;SDS011;47427;51.976;5.326;2022-11-10T23:24:38;21.88;;;11.32;;
45402;SDS011;47427;51.976;5.326;2022-11-10T23:28:18;16.35;;;10.80;;
45402;SDS011;47427;51.976;5.326;2022-11-10T23:31:59;22.27;;;11.55;;
45402;SDS011;47427;51.976;5.326;2022-11-10T23:35:39;21.00;;;11.25;;
45402;SDS011;47427;51.976;5.326;2022-11-10T23:39:19;21.75;;;11.55;;
45402;SDS011;47427;51.976;5.326;2022-11-10T23:42:59;28.92;;;12.20;;
45402;SDS011;47427;51.976;5.326;2022-11-10T23:46:39;24.45;;;13.45;;
45402;SDS011;47427;51.976;5.326;2022-11-10T23:50:19;27.38;;;13.30;;
45402;SDS011;47427;51.976;5.326;2022-11-10T23:53:59;20.77;;;13.05;;
45402;SDS011;47427;51.976;5.326;2022-11-10T23:57:40;18.60;;;12.23;;
